sensor_id;sensor_type;location;lat;lon;timestamp;temperature;humidity
40287;DHT22;25998;46.604;13.610;2023-09-07T00:02:42;17.00;99.90
40287;DHT22;25998;46.604;13.610;2023-09-07T00:05:53;17.00;99.90
40287;DHT22;25998;46.604;13.610;2023-09-07T00:09:04;16.80;99.90
40287;DHT22;25998;46.604;13.610;2023-09-07T00:12:16;16.60;99.90
40287;DHT22;25998;46.604;13.610;2023-09-07T00:15:27;16.40;99.90
40287;DHT22;25998;46.604;13.610;2023-09-07T00:18:38;16.30;99.90
40287;DHT22;25998;46.604;13.610;2023-09-07T00:21:49;16.20;99.90
40287;DHT22;25998;46.604;13.610;2023-09-07T00:25:02;16.10;99.90
40287;DHT22;25998;46.604;13.610;2023-09-07T00:28:14;16.10;99.90
40287;DHT22;25998;46.604;13.610;2023-09-07T00:31:25;16.00;99.90
40287;DHT22;25998;46.604;13.610;2023-09-07T00:34:36;16.10;99.90
40287;DHT22;25998;46.604;13.610;2023-09-07T00:37:47;16.00;99.90
40287;DHT22;25998;46.604;13.610;2023-09-07T00:40:57;16.00;99.90
40287;DHT22;25998;46.604;13.610;2023-09-07T00:44:08;16.20;99.90
40287;DHT22;25998;46.604;13.610;2023-09-07T00:47:19;16.40;99.90
40287;DHT22;25998;46.604;13.610;2023-09-07T00:50:30;16.40;99.90
40287;DHT22;25998;46.604;13.610;2023-09-07T00:53:41;16.40;99.90
40287;DHT22;25998;46.604;13.610;2023-09-07T00:56:54;16.60;99.90
40287;DHT22;25998;46.604;13.610;2023-09-07T01:00:06;16.60;99.90
40287;DHT22;25998;46.604;13.610;2023-09-07T01:03:18;16.20;99.90
40287;DHT22;25998;46.604;13.610;2023-09-07T01:06:40;16.00;99.90
40287;DHT22;25998;46.604;13.610;2023-09-07T01:09:59;16.10;99.90
40287;DHT22;25998;46.604;13.610;2023-09-07T01:13:10;16.00;99.90
40287;DHT22;25998;46.604;13.610;2023-09-07T01:16:21;15.90;99.90
40287;DHT22;25998;46.604;13.610;2023-09-07T01:19:34;15.70;99.90
40287;DHT22;25998;46.604;13.610;2023-09-07T01:22:45;15.60;99.90
40287;DHT22;25998;46.604;13.610;2023-09-07T01:25:56;15.50;99.90
40287;DHT22;25998;46.604;13.610;2023-09-07T01:29:08;15.60;99.90
40287;DHT22;25998;46.604;13.610;2023-09-07T01:32:19;15.60;99.90
40287;DHT22;25998;46.604;13.610;2023-09-07T01:35:32;15.60;99.90
40287;DHT22;25998;46.604;13.610;2023-09-07T01:38:44;15.60;99.90
40287;DHT22;25998;46.604;13.610;2023-09-07T01:41:55;15.80;99.90
40287;DHT22;25998;46.604;13.610;2023-09-07T01:45:06;15.90;99.90
40287;DHT22;25998;46.604;13.610;2023-09-07T01:48:17;16.00;99.90
40287;DHT22;25998;46.604;13.610;2023-09-07T01:51:28;16.10;99.90
40287;DHT22;25998;46.604;13.610;2023-09-07T01:54:39;16.00;99.90
40287;DHT22;25998;46.604;13.610;2023-09-07T01:57:50;16.00;99.90
40287;DHT22;25998;46.604;13.610;2023-09-07T02:01:00;16.10;99.90
40287;DHT22;25998;46.604;13.610;2023-09-07T02:04:11;16.10;99.90
40287;DHT22;25998;46.604;13.610;2023-09-07T02:07:22;16.00;99.90
40287;DHT22;25998;46.604;13.610;2023-09-07T02:10:33;16.00;99.90
40287;DHT22;25998;46.604;13.610;2023-09-07T02:13:47;16.00;99.90
40287;DHT22;25998;46.604;13.610;2023-09-07T02:16:58;16.00;99.90
40287;DHT22;25998;46.604;13.610;2023-09-07T02:20:09;16.00;99.90
40287;DHT22;25998;46.604;13.610;2023-09-07T02:23:20;15.80;99.90
40287;DHT22;25998;46.604;13.610;2023-09-07T02:26:31;15.70;99.90
40287;DHT22;25998;46.604;13.610;2023-09-07T02:29:42;15.70;99.90
40287;DHT22;25998;46.604;13.610;2023-09-07T02:32:53;15.70;99.90
40287;DHT22;25998;46.604;13.610;2023-09-07T02:36:04;15.80;99.90
40287;DHT22;25998;46.604;13.610;2023-09-07T02:39:15;15.80;99.90
40287;DHT22;25998;46.604;13.610;2023-09-07T02:42:25;15.90;99.90
40287;DHT22;25998;46.604;13.610;2023-09-07T02:45:37;15.80;99.90
40287;DHT22;25998;46.604;13.610;2023-09-07T02:48:48;15.70;99.90
40287;DHT22;25998;46.604;13.610;2023-09-07T02:51:59;15.60;99.90
40287;DHT22;25998;46.604;13.610;2023-09-07T02:55:10;15.60;99.90
40287;DHT22;25998;46.604;13.610;2023-09-07T02:58:22;15.60;99.90
40287;DHT22;25998;46.604;13.610;2023-09-07T03:01:33;15.60;99.90
40287;DHT22;25998;46.604;13.610;2023-09-07T03:04:44;15.70;99.90
40287;DHT22;25998;46.604;13.610;2023-09-07T03:07:55;15.60;99.90
40287;DHT22;25998;46.604;13.610;2023-09-07T03:11:07;15.60;99.90
40287;DHT22;25998;46.604;13.610;2023-09-07T03:14:18;15.70;99.90
40287;DHT22;25998;46.604;13.610;2023-09-07T03:17:30;15.80;99.90
40287;DHT22;25998;46.604;13.610;2023-09-07T03:20:41;15.80;99.90
40287;DHT22;25998;46.604;13.610;2023-09-07T03:23:52;15.70;99.90
40287;DHT22;25998;46.604;13.610;2023-09-07T03:27:03;15.70;99.90
40287;DHT22;25998;46.604;13.610;2023-09-07T03:30:16;15.70;99.90
40287;DHT22;25998;46.604;13.610;2023-09-07T03:33:27;15.50;99.90
40287;DHT22;25998;46.604;13.610;2023-09-07T03:36:38;15.50;99.90
40287;DHT22;25998;46.604;13.610;2023-09-07T03:39:49;15.50;99.90
40287;DHT22;25998;46.604;13.610;2023-09-07T03:43:00;15.50;99.90
40287;DHT22;25998;46.604;13.610;2023-09-07T03:46:11;15.40;99.90
40287;DHT22;25998;46.604;13.610;2023-09-07T03:49:21;15.30;99.90
40287;DHT22;25998;46.604;13.610;2023-09-07T03:52:32;15.20;99.90
40287;DHT22;25998;46.604;13.610;2023-09-07T03:55:44;15.10;99.90
40287;DHT22;25998;46.604;13.610;2023-09-07T03:58:55;14.90;99.90
40287;DHT22;25998;46.604;13.610;2023-09-07T04:02:06;14.90;99.90
40287;DHT22;25998;46.604;13.610;2023-09-07T04:05:17;14.70;99.90
40287;DHT22;25998;46.604;13.610;2023-09-07T04:08:27;14.70;99.90
40287;DHT22;25998;46.604;13.610;2023-09-07T04:11:38;14.70;99.90
40287;DHT22;25998;46.604;13.610;2023-09-07T04:14:49;14.70;99.90
40287;DHT22;25998;46.604;13.610;2023-09-07T04:18:00;15.00;99.90
40287;DHT22;25998;46.604;13.610;2023-09-07T04:21:11;15.10;99.90
40287;DHT22;25998;46.604;13.610;2023-09-07T04:24:23;15.10;99.90
40287;DHT22;25998;46.604;13.610;2023-09-07T04:27:34;15.20;99.90
40287;DHT22;25998;46.604;13.610;2023-09-07T04:30:44;15.20;99.90
40287;DHT22;25998;46.604;13.610;2023-09-07T04:33:55;15.10;99.90
40287;DHT22;25998;46.604;13.610;2023-09-07T04:37:06;15.00;99.90
40287;DHT22;25998;46.604;13.610;2023-09-07T04:40:17;14.80;99.90
40287;DHT22;25998;46.604;13.610;2023-09-07T04:43:28;14.60;99.90
40287;DHT22;25998;46.604;13.610;2023-09-07T04:46:39;14.50;99.90
40287;DHT22;25998;46.604;13.610;2023-09-07T04:49:50;14.30;99.90
40287;DHT22;25998;46.604;13.610;2023-09-07T04:53:03;14.30;99.90
40287;DHT22;25998;46.604;13.610;2023-09-07T04:56:16;14.40;99.90
40287;DHT22;25998;46.604;13.610;2023-09-07T04:59:28;14.60;99.90
40287;DHT22;25998;46.604;13.610;2023-09-07T05:02:38;14.70;99.90
40287;DHT22;25998;46.604;13.610;2023-09-07T05:05:53;14.50;99.90
40287;DHT22;25998;46.604;13.610;2023-09-07T05:09:04;14.50;99.90
40287;DHT22;25998;46.604;13.610;2023-09-07T05:12:14;14.70;99.90
40287;DHT22;25998;46.604;13.610;2023-09-07T05:15:28;14.80;99.90
40287;DHT22;25998;46.604;13.610;2023-09-07T05:18:41;14.80;99.90
40287;DHT22;25998;46.604;13.610;2023-09-07T05:21:53;14.70;99.90
40287;DHT22;25998;46.604;13.610;2023-09-07T05:25:04;14.80;99.90
40287;DHT22;25998;46.604;13.610;2023-09-07T05:28:16;14.70;99.90
40287;DHT22;25998;46.604;13.610;2023-09-07T05:31:27;14.80;99.90
40287;DHT22;25998;46.604;13.610;2023-09-07T05:34:37;14.80;99.90
40287;DHT22;25998;46.604;13.610;2023-09-07T05:37:48;14.90;99.90
40287;DHT22;25998;46.604;13.610;2023-09-07T05:41:00;14.90;99.90
40287;DHT22;25998;46.604;13.610;2023-09-07T05:44:11;15.00;99.90
40287;DHT22;25998;46.604;13.610;2023-09-07T05:47:21;15.20;99.90
40287;DHT22;25998;46.604;13.610;2023-09-07T05:50:36;15.20;99.90
40287;DHT22;25998;46.604;13.610;2023-09-07T05:53:47;15.30;99.90
40287;DHT22;25998;46.604;13.610;2023-09-07T05:56:58;15.20;99.90
40287;DHT22;25998;46.604;13.610;2023-09-07T06:00:09;15.10;99.90
40287;DHT22;25998;46.604;13.610;2023-09-07T06:03:20;15.20;99.90
40287;DHT22;25998;46.604;13.610;2023-09-07T06:06:31;15.20;99.90
40287;DHT22;25998;46.604;13.610;2023-09-07T06:09:42;15.30;99.90
40287;DHT22;25998;46.604;13.610;2023-09-07T06:12:53;15.40;99.90
40287;DHT22;25998;46.604;13.610;2023-09-07T06:16:04;15.50;99.90
40287;DHT22;25998;46.604;13.610;2023-09-07T06:19:15;15.60;99.90
40287;DHT22;25998;46.604;13.610;2023-09-07T06:22:26;15.80;99.90
40287;DHT22;25998;46.604;13.610;2023-09-07T06:25:37;15.90;99.90
40287;DHT22;25998;46.604;13.610;2023-09-07T06:28:48;16.00;99.90
40287;DHT22;25998;46.604;13.610;2023-09-07T06:31:59;16.20;99.90
40287;DHT22;25998;46.604;13.610;2023-09-07T06:35:10;16.20;99.90
40287;DHT22;25998;46.604;13.610;2023-09-07T06:38:21;16.10;99.90
40287;DHT22;25998;46.604;13.610;2023-09-07T06:41:31;16.10;99.90
40287;DHT22;25998;46.604;13.610;2023-09-07T06:44:42;16.20;99.90
40287;DHT22;25998;46.604;13.610;2023-09-07T06:47:53;16.20;99.90
40287;DHT22;25998;46.604;13.610;2023-09-07T06:51:05;16.20;99.90
40287;DHT22;25998;46.604;13.610;2023-09-07T06:54:16;16.40;99.90
40287;DHT22;25998;46.604;13.610;2023-09-07T06:57:27;16.80;99.90
40287;DHT22;25998;46.604;13.610;2023-09-07T07:00:38;17.10;99.90
40287;DHT22;25998;46.604;13.610;2023-09-07T07:03:48;17.20;99.90
40287;DHT22;25998;46.604;13.610;2023-09-07T07:07:00;17.30;99.90
40287;DHT22;25998;46.604;13.610;2023-09-07T07:10:11;17.40;99.90
40287;DHT22;25998;46.604;13.610;2023-09-07T07:13:22;17.40;99.90
40287;DHT22;25998;46.604;13.610;2023-09-07T07:16:33;17.40;99.90
40287;DHT22;25998;46.604;13.610;2023-09-07T07:19:44;17.30;99.90
40287;DHT22;25998;46.604;13.610;2023-09-07T07:22:55;17.30;99.90
40287;DHT22;25998;46.604;13.610;2023-09-07T07:26:06;17.40;99.90
40287;DHT22;25998;46.604;13.610;2023-09-07T07:29:17;17.80;99.90
40287;DHT22;25998;46.604;13.610;2023-09-07T07:32:28;18.10;99.90
40287;DHT22;25998;46.604;13.610;2023-09-07T07:35:39;18.10;99.90
40287;DHT22;25998;46.604;13.610;2023-09-07T07:38:50;18.40;99.90
40287;DHT22;25998;46.604;13.610;2023-09-07T07:42:00;19.50;99.90
40287;DHT22;25998;46.604;13.610;2023-09-07T07:45:11;20.40;99.90
40287;DHT22;25998;46.604;13.610;2023-09-07T07:48:23;20.90;99.90
40287;DHT22;25998;46.604;13.610;2023-09-07T07:51:34;21.40;99.30
40287;DHT22;25998;46.604;13.610;2023-09-07T07:54:44;21.80;98.00
40287;DHT22;25998;46.604;13.610;2023-09-07T07:57:55;22.10;97.90
40287;DHT22;25998;46.604;13.610;2023-09-07T08:01:14;22.30;97.70
40287;DHT22;25998;46.604;13.610;2023-09-07T08:04:25;22.40;97.20
40287;DHT22;25998;46.604;13.610;2023-09-07T08:07:36;22.70;97.20
40287;DHT22;25998;46.604;13.610;2023-09-07T08:10:46;22.70;96.40
40287;DHT22;25998;46.604;13.610;2023-09-07T08:13:57;22.70;97.10
40287;DHT22;25998;46.604;13.610;2023-09-07T08:17:08;23.00;96.70
40287;DHT22;25998;46.604;13.610;2023-09-07T08:20:19;23.30;96.70
40287;DHT22;25998;46.604;13.610;2023-09-07T08:23:30;23.30;96.50
40287;DHT22;25998;46.604;13.610;2023-09-07T08:26:41;23.60;96.00
40287;DHT22;25998;46.604;13.610;2023-09-07T08:29:52;23.80;95.00
40287;DHT22;25998;46.604;13.610;2023-09-07T08:33:04;23.90;95.80
40287;DHT22;25998;46.604;13.610;2023-09-07T08:36:17;24.30;95.40
40287;DHT22;25998;46.604;13.610;2023-09-07T08:39:28;24.30;95.00
40287;DHT22;25998;46.604;13.610;2023-09-07T08:42:39;24.30;94.90
40287;DHT22;25998;46.604;13.610;2023-09-07T08:46:03;24.50;95.70
40287;DHT22;25998;46.604;13.610;2023-09-07T08:49:16;24.60;96.00
40287;DHT22;25998;46.604;13.610;2023-09-07T08:52:30;24.40;95.80
40287;DHT22;25998;46.604;13.610;2023-09-07T08:55:41;24.30;95.30
40287;DHT22;25998;46.604;13.610;2023-09-07T08:58:52;24.40;96.20
40287;DHT22;25998;46.604;13.610;2023-09-07T09:02:08;24.40;94.30
40287;DHT22;25998;46.604;13.610;2023-09-07T09:05:20;24.50;94.60
40287;DHT22;25998;46.604;13.610;2023-09-07T09:08:52;24.50;94.20
40287;DHT22;25998;46.604;13.610;2023-09-07T09:12:11;24.60;94.10
40287;DHT22;25998;46.604;13.610;2023-09-07T09:15:22;24.90;94.60
40287;DHT22;25998;46.604;13.610;2023-09-07T09:18:33;25.00;93.90
40287;DHT22;25998;46.604;13.610;2023-09-07T09:21:45;25.00;94.60
40287;DHT22;25998;46.604;13.610;2023-09-07T09:24:56;25.10;94.10
40287;DHT22;25998;46.604;13.610;2023-09-07T09:28:09;25.40;94.80
40287;DHT22;25998;46.604;13.610;2023-09-07T09:31:21;25.20;93.60
40287;DHT22;25998;46.604;13.610;2023-09-07T09:34:33;25.20;93.20
40287;DHT22;25998;46.604;13.610;2023-09-07T09:37:46;25.10;93.50
40287;DHT22;25998;46.604;13.610;2023-09-07T09:40:58;25.40;93.30
40287;DHT22;25998;46.604;13.610;2023-09-07T09:44:09;25.50;93.10
40287;DHT22;25998;46.604;13.610;2023-09-07T09:47:21;25.80;93.70
40287;DHT22;25998;46.604;13.610;2023-09-07T09:50:33;25.50;93.40
40287;DHT22;25998;46.604;13.610;2023-09-07T09:53:53;25.50;93.30
40287;DHT22;25998;46.604;13.610;2023-09-07T09:57:05;25.40;93.50
40287;DHT22;25998;46.604;13.610;2023-09-07T10:00:16;25.40;92.80
40287;DHT22;25998;46.604;13.610;2023-09-07T10:03:37;25.60;92.70
40287;DHT22;25998;46.604;13.610;2023-09-07T10:10:09;25.50;92.90
40287;DHT22;25998;46.604;13.610;2023-09-07T10:13:31;25.80;92.90
40287;DHT22;25998;46.604;13.610;2023-09-07T10:16:45;26.00;92.30
40287;DHT22;25998;46.604;13.610;2023-09-07T10:20:06;26.30;92.30
40287;DHT22;25998;46.604;13.610;2023-09-07T10:23:17;26.30;91.80
40287;DHT22;25998;46.604;13.610;2023-09-07T10:26:28;26.30;92.60
40287;DHT22;25998;46.604;13.610;2023-09-07T10:29:51;26.10;91.70
40287;DHT22;25998;46.604;13.610;2023-09-07T10:33:05;26.10;91.60
40287;DHT22;25998;46.604;13.610;2023-09-07T10:36:24;26.30;92.90
40287;DHT22;25998;46.604;13.610;2023-09-07T10:39:35;26.50;92.70
40287;DHT22;25998;46.604;13.610;2023-09-07T10:42:45;26.50;93.20
40287;DHT22;25998;46.604;13.610;2023-09-07T10:45:57;26.80;91.80
40287;DHT22;25998;46.604;13.610;2023-09-07T10:49:11;27.00;91.90
40287;DHT22;25998;46.604;13.610;2023-09-07T10:52:22;26.80;91.20
40287;DHT22;25998;46.604;13.610;2023-09-07T10:55:37;27.10;92.20
40287;DHT22;25998;46.604;13.610;2023-09-07T10:58:53;27.20;91.70
40287;DHT22;25998;46.604;13.610;2023-09-07T11:02:06;26.80;91.00
40287;DHT22;25998;46.604;13.610;2023-09-07T11:05:17;27.00;90.60
40287;DHT22;25998;46.604;13.610;2023-09-07T11:08:31;27.00;90.30
40287;DHT22;25998;46.604;13.610;2023-09-07T11:11:46;26.80;91.30
40287;DHT22;25998;46.604;13.610;2023-09-07T11:14:58;26.50;91.90
40287;DHT22;25998;46.604;13.610;2023-09-07T11:18:09;26.70;92.70
40287;DHT22;25998;46.604;13.610;2023-09-07T11:21:20;26.90;92.30
40287;DHT22;25998;46.604;13.610;2023-09-07T11:24:32;27.00;90.70
40287;DHT22;25998;46.604;13.610;2023-09-07T11:27:45;27.20;90.50
40287;DHT22;25998;46.604;13.610;2023-09-07T11:30:55;27.00;91.20
40287;DHT22;25998;46.604;13.610;2023-09-07T11:34:10;26.70;90.90
40287;DHT22;25998;46.604;13.610;2023-09-07T11:37:25;26.90;91.50
40287;DHT22;25998;46.604;13.610;2023-09-07T11:40:36;26.90;89.90
40287;DHT22;25998;46.604;13.610;2023-09-07T11:43:47;27.10;90.10
40287;DHT22;25998;46.604;13.610;2023-09-07T11:46:58;26.80;90.30
40287;DHT22;25998;46.604;13.610;2023-09-07T11:50:09;26.60;90.90
40287;DHT22;25998;46.604;13.610;2023-09-07T11:53:20;26.90;90.00
40287;DHT22;25998;46.604;13.610;2023-09-07T11:56:31;27.30;89.80
40287;DHT22;25998;46.604;13.610;2023-09-07T11:59:42;27.20;90.10
40287;DHT22;25998;46.604;13.610;2023-09-07T12:02:53;27.30;91.30
40287;DHT22;25998;46.604;13.610;2023-09-07T12:06:03;27.30;89.50
40287;DHT22;25998;46.604;13.610;2023-09-07T12:09:14;27.00;90.40
40287;DHT22;25998;46.604;13.610;2023-09-07T12:12:27;27.00;90.60
40287;DHT22;25998;46.604;13.610;2023-09-07T12:15:38;27.20;90.20
40287;DHT22;25998;46.604;13.610;2023-09-07T12:18:49;27.40;90.30
40287;DHT22;25998;46.604;13.610;2023-09-07T12:22:00;27.50;90.30
40287;DHT22;25998;46.604;13.610;2023-09-07T12:25:11;27.50;90.10
40287;DHT22;25998;46.604;13.610;2023-09-07T12:28:22;27.40;86.30
40287;DHT22;25998;46.604;13.610;2023-09-07T12:31:33;27.50;89.20
40287;DHT22;25998;46.604;13.610;2023-09-07T12:34:44;27.30;87.60
40287;DHT22;25998;46.604;13.610;2023-09-07T12:37:55;27.40;89.20
40287;DHT22;25998;46.604;13.610;2023-09-07T12:41:05;27.50;88.20
40287;DHT22;25998;46.604;13.610;2023-09-07T12:44:16;27.30;89.10
40287;DHT22;25998;46.604;13.610;2023-09-07T12:47:28;27.10;87.70
40287;DHT22;25998;46.604;13.610;2023-09-07T12:50:39;27.00;90.70
40287;DHT22;25998;46.604;13.610;2023-09-07T12:53:51;27.00;90.60
40287;DHT22;25998;46.604;13.610;2023-09-07T12:57:02;27.00;89.70
40287;DHT22;25998;46.604;13.610;2023-09-07T13:00:13;27.20;87.70
40287;DHT22;25998;46.604;13.610;2023-09-07T13:03:24;27.30;88.10
40287;DHT22;25998;46.604;13.610;2023-09-07T13:06:35;27.10;89.20
40287;DHT22;25998;46.604;13.610;2023-09-07T13:09:46;27.00;90.20
40287;DHT22;25998;46.604;13.610;2023-09-07T13:12:57;26.90;90.30
40287;DHT22;25998;46.604;13.610;2023-09-07T13:16:07;27.20;87.70
40287;DHT22;25998;46.604;13.610;2023-09-07T13:19:18;27.20;89.90
40287;DHT22;25998;46.604;13.610;2023-09-07T13:22:29;26.90;87.90
40287;DHT22;25998;46.604;13.610;2023-09-07T13:25:40;26.80;88.00
40287;DHT22;25998;46.604;13.610;2023-09-07T13:28:51;26.80;90.90
40287;DHT22;25998;46.604;13.610;2023-09-07T13:32:03;26.70;90.50
40287;DHT22;25998;46.604;13.610;2023-09-07T13:35:14;26.60;91.00
40287;DHT22;25998;46.604;13.610;2023-09-07T13:38:26;26.60;90.60
40287;DHT22;25998;46.604;13.610;2023-09-07T13:41:37;26.80;90.50
40287;DHT22;25998;46.604;13.610;2023-09-07T13:44:48;26.70;90.30
40287;DHT22;25998;46.604;13.610;2023-09-07T13:48:00;26.70;90.10
40287;DHT22;25998;46.604;13.610;2023-09-07T13:51:12;26.50;91.20
40287;DHT22;25998;46.604;13.610;2023-09-07T13:54:23;26.40;90.00
40287;DHT22;25998;46.604;13.610;2023-09-07T13:57:34;26.10;89.40
40287;DHT22;25998;46.604;13.610;2023-09-07T14:00:45;26.30;90.60
40287;DHT22;25998;46.604;13.610;2023-09-07T14:03:57;26.50;90.40
40287;DHT22;25998;46.604;13.610;2023-09-07T14:07:08;26.50;90.20
40287;DHT22;25998;46.604;13.610;2023-09-07T14:10:19;26.60;91.00
40287;DHT22;25998;46.604;13.610;2023-09-07T14:13:31;26.60;89.30
40287;DHT22;25998;46.604;13.610;2023-09-07T14:16:45;26.70;89.60
40287;DHT22;25998;46.604;13.610;2023-09-07T14:19:56;26.60;90.40
40287;DHT22;25998;46.604;13.610;2023-09-07T14:23:07;26.70;91.10
40287;DHT22;25998;46.604;13.610;2023-09-07T14:26:18;26.40;90.30
40287;DHT22;25998;46.604;13.610;2023-09-07T14:29:28;26.20;90.80
40287;DHT22;25998;46.604;13.610;2023-09-07T14:32:39;26.20;90.70
40287;DHT22;25998;46.604;13.610;2023-09-07T14:35:51;26.30;88.40
40287;DHT22;25998;46.604;13.610;2023-09-07T14:39:08;26.40;89.90
40287;DHT22;25998;46.604;13.610;2023-09-07T14:42:19;26.20;90.30
40287;DHT22;25998;46.604;13.610;2023-09-07T14:45:30;26.20;87.80
40287;DHT22;25998;46.604;13.610;2023-09-07T14:48:41;26.20;89.30
40287;DHT22;25998;46.604;13.610;2023-09-07T14:51:53;26.30;88.90
40287;DHT22;25998;46.604;13.610;2023-09-07T14:55:04;26.20;89.50
40287;DHT22;25998;46.604;13.610;2023-09-07T14:58:15;25.90;89.40
40287;DHT22;25998;46.604;13.610;2023-09-07T15:01:26;26.10;90.90
40287;DHT22;25998;46.604;13.610;2023-09-07T15:04:37;26.10;90.10
40287;DHT22;25998;46.604;13.610;2023-09-07T15:07:48;25.90;90.20
40287;DHT22;25998;46.604;13.610;2023-09-07T15:10:58;25.90;89.10
40287;DHT22;25998;46.604;13.610;2023-09-07T15:14:10;25.70;87.50
40287;DHT22;25998;46.604;13.610;2023-09-07T15:17:21;25.80;89.60
40287;DHT22;25998;46.604;13.610;2023-09-07T15:20:32;25.70;89.70
40287;DHT22;25998;46.604;13.610;2023-09-07T15:23:42;25.70;90.40
40287;DHT22;25998;46.604;13.610;2023-09-07T15:26:53;25.60;90.50
40287;DHT22;25998;46.604;13.610;2023-09-07T15:30:05;25.60;90.60
40287;DHT22;25998;46.604;13.610;2023-09-07T15:33:16;25.50;91.10
40287;DHT22;25998;46.604;13.610;2023-09-07T15:36:26;25.50;90.70
40287;DHT22;25998;46.604;13.610;2023-09-07T15:39:37;25.30;90.40
40287;DHT22;25998;46.604;13.610;2023-09-07T15:42:49;25.10;92.50
40287;DHT22;25998;46.604;13.610;2023-09-07T15:46:00;24.90;92.20
40287;DHT22;25998;46.604;13.610;2023-09-07T15:49:11;25.00;91.60
40287;DHT22;25998;46.604;13.610;2023-09-07T15:52:22;24.80;92.60
40287;DHT22;25998;46.604;13.610;2023-09-07T15:55:32;24.80;92.90
40287;DHT22;25998;46.604;13.610;2023-09-07T15:58:43;24.90;92.30
40287;DHT22;25998;46.604;13.610;2023-09-07T16:01:54;24.70;92.20
40287;DHT22;25998;46.604;13.610;2023-09-07T16:05:05;24.10;93.50
40287;DHT22;25998;46.604;13.610;2023-09-07T16:08:16;23.80;93.80
40287;DHT22;25998;46.604;13.610;2023-09-07T16:11:27;23.60;94.10
40287;DHT22;25998;46.604;13.610;2023-09-07T16:14:38;23.50;94.40
40287;DHT22;25998;46.604;13.610;2023-09-07T16:17:49;23.20;94.70
40287;DHT22;25998;46.604;13.610;2023-09-07T16:21:00;23.10;94.70
40287;DHT22;25998;46.604;13.610;2023-09-07T16:24:12;23.00;94.60
40287;DHT22;25998;46.604;13.610;2023-09-07T16:27:23;22.90;95.00
40287;DHT22;25998;46.604;13.610;2023-09-07T16:30:34;22.70;94.80
40287;DHT22;25998;46.604;13.610;2023-09-07T16:33:45;22.60;95.50
40287;DHT22;25998;46.604;13.610;2023-09-07T16:36:55;22.40;95.50
40287;DHT22;25998;46.604;13.610;2023-09-07T16:40:07;22.20;95.90
40287;DHT22;25998;46.604;13.610;2023-09-07T16:43:18;22.10;96.10
40287;DHT22;25998;46.604;13.610;2023-09-07T16:46:29;22.00;96.20
40287;DHT22;25998;46.604;13.610;2023-09-07T16:49:40;21.90;96.60
40287;DHT22;25998;46.604;13.610;2023-09-07T16:52:51;21.80;96.70
40287;DHT22;25998;46.604;13.610;2023-09-07T16:56:02;21.70;96.70
40287;DHT22;25998;46.604;13.610;2023-09-07T16:59:13;21.40;97.10
40287;DHT22;25998;46.604;13.610;2023-09-07T17:02:26;21.20;97.20
40287;DHT22;25998;46.604;13.610;2023-09-07T17:05:36;21.10;97.20
40287;DHT22;25998;46.604;13.610;2023-09-07T17:08:47;21.10;97.00
40287;DHT22;25998;46.604;13.610;2023-09-07T17:11:59;21.30;96.70
40287;DHT22;25998;46.604;13.610;2023-09-07T17:15:10;21.10;96.70
40287;DHT22;25998;46.604;13.610;2023-09-07T17:18:21;21.20;97.00
40287;DHT22;25998;46.604;13.610;2023-09-07T17:21:32;21.00;96.20
40287;DHT22;25998;46.604;13.610;2023-09-07T17:24:43;20.90;96.30
40287;DHT22;25998;46.604;13.610;2023-09-07T17:27:54;21.00;96.20
40287;DHT22;25998;46.604;13.610;2023-09-07T17:31:12;21.20;95.70
40287;DHT22;25998;46.604;13.610;2023-09-07T17:34:24;21.00;96.20
40287;DHT22;25998;46.604;13.610;2023-09-07T17:37:35;20.80;96.00
40287;DHT22;25998;46.604;13.610;2023-09-07T17:40:46;20.70;96.50
40287;DHT22;25998;46.604;13.610;2023-09-07T17:43:57;20.30;97.10
40287;DHT22;25998;46.604;13.610;2023-09-07T17:47:07;20.10;97.20
40287;DHT22;25998;46.604;13.610;2023-09-07T17:50:18;20.10;97.40
40287;DHT22;25998;46.604;13.610;2023-09-07T17:53:29;20.10;97.30
40287;DHT22;25998;46.604;13.610;2023-09-07T17:56:40;19.80;97.70
40287;DHT22;25998;46.604;13.610;2023-09-07T17:59:51;19.70;98.10
40287;DHT22;25998;46.604;13.610;2023-09-07T18:03:02;19.80;97.70
40287;DHT22;25998;46.604;13.610;2023-09-07T18:06:13;19.70;97.60
40287;DHT22;25998;46.604;13.610;2023-09-07T18:09:25;19.70;97.90
40287;DHT22;25998;46.604;13.610;2023-09-07T18:12:36;19.90;97.30
40287;DHT22;25998;46.604;13.610;2023-09-07T18:15:47;19.80;97.70
40287;DHT22;25998;46.604;13.610;2023-09-07T18:18:58;19.80;97.40
40287;DHT22;25998;46.604;13.610;2023-09-07T18:22:09;19.70;97.30
40287;DHT22;25998;46.604;13.610;2023-09-07T18:25:20;19.80;96.80
40287;DHT22;25998;46.604;13.610;2023-09-07T18:28:32;19.70;97.00
40287;DHT22;25998;46.604;13.610;2023-09-07T18:31:44;19.80;96.80
40287;DHT22;25998;46.604;13.610;2023-09-07T18:34:55;19.70;96.80
40287;DHT22;25998;46.604;13.610;2023-09-07T18:38:06;19.50;96.80
40287;DHT22;25998;46.604;13.610;2023-09-07T18:41:16;19.30;97.40
40287;DHT22;25998;46.604;13.610;2023-09-07T18:44:27;19.30;97.00
40287;DHT22;25998;46.604;13.610;2023-09-07T18:47:38;19.30;97.10
40287;DHT22;25998;46.604;13.610;2023-09-07T18:50:49;19.30;96.90
40287;DHT22;25998;46.604;13.610;2023-09-07T18:54:00;19.20;96.80
40287;DHT22;25998;46.604;13.610;2023-09-07T18:57:10;19.10;97.30
40287;DHT22;25998;46.604;13.610;2023-09-07T19:00:21;19.00;97.00
40287;DHT22;25998;46.604;13.610;2023-09-07T19:03:32;19.00;97.10
40287;DHT22;25998;46.604;13.610;2023-09-07T19:06:43;19.10;96.80
40287;DHT22;25998;46.604;13.610;2023-09-07T19:09:54;19.00;97.10
40287;DHT22;25998;46.604;13.610;2023-09-07T19:13:06;18.90;97.50
40287;DHT22;25998;46.604;13.610;2023-09-07T19:16:18;18.90;97.30
40287;DHT22;25998;46.604;13.610;2023-09-07T19:19:29;18.70;97.40
40287;DHT22;25998;46.604;13.610;2023-09-07T19:22:40;18.80;97.50
40287;DHT22;25998;46.604;13.610;2023-09-07T19:25:51;18.60;97.60
40287;DHT22;25998;46.604;13.610;2023-09-07T19:29:04;18.50;97.90
40287;DHT22;25998;46.604;13.610;2023-09-07T19:32:15;18.40;98.30
40287;DHT22;25998;46.604;13.610;2023-09-07T19:35:28;18.10;98.70
40287;DHT22;25998;46.604;13.610;2023-09-07T19:38:39;18.10;99.10
40287;DHT22;25998;46.604;13.610;2023-09-07T19:41:50;18.30;98.80
40287;DHT22;25998;46.604;13.610;2023-09-07T19:45:01;18.50;98.30
40287;DHT22;25998;46.604;13.610;2023-09-07T19:48:15;18.50;98.40
40287;DHT22;25998;46.604;13.610;2023-09-07T19:51:26;18.50;98.50
40287;DHT22;25998;46.604;13.610;2023-09-07T19:54:37;18.40;98.50